Time;durP1;ratioP1;P1;durP2;ratioP2;P2;SDS_P1;SDS_P2;PMS_P1;PMS_P2;Temp;Humidity;BMP_temperature;BMP_pressure;BME280_temperature;BME280_humidity;BME280_pressure;Samples;Min_cycle;Max_cycle;Signal;HPM_P1;HPM_P2
2021/12/24 00:02:19;;;;;;;;;;;;;;;8.92;75.21;100073.09;5123371;27;55524;-89
2021/12/24 00:04:44;;;;;;;;;;;;;;;8.93;75.29;100069.63;5143494;27;34468;-88
2021/12/24 00:07:09;;;;;;;;;;;;;;;8.93;75.42;100073.03;5144915;27;35612;-87
2021/12/24 00:09:36;;;;;;;;;;;;;;;8.93;75.62;100069.63;5146770;27;56542;-88
2021/12/24 00:12:05;;;;;;;;;;;;;;;8.93;76.24;100069.63;5147341;27;26812;-88
2021/12/24 00:14:31;;;;;;;;;;;;;;;8.95;75.63;100063.56;5145686;27;26931;-87
2021/12/24 00:17:01;;;;;;;;;;;;;;;8.93;76.51;100065.31;5147798;27;26936;-87
2021/12/24 00:35:39;;;;;;;;;;;;;;;9.15;75.10;100060.34;5143581;27;26852;-88
2021/12/24 00:38:06;;;;;;;;;;;;;;;9.15;75.66;100055.19;5142421;27;26894;-88
2021/12/24 00:40:33;;;;;;;;;;;;;;;9.19;75.10;100046.47;5151547;27;27638;-87
2021/12/24 00:43:00;;;;;;;;;;;;;;;9.21;74.90;100039.56;5151868;27;26802;-88
2021/12/24 00:45:27;;;;;;;;;;;;;;;9.24;75.76;100049.75;5144851;27;27297;-88
2021/12/24 00:47:52;;;;;;;;;;;;;;;9.26;75.78;100040.25;5144171;27;26846;-87
2021/12/24 00:50:21;;;;;;;;;;;;;;;9.25;76.11;100041.16;5144054;27;27310;-88
2021/12/24 00:52:49;;;;;;;;;;;;;;;9.28;75.75;100046.19;5124628;27;26845;-89
2021/12/24 00:55:17;;;;;;;;;;;;;;;9.28;76.26;100046.19;5143051;27;26893;-88
2021/12/24 00:57:44;;;;;;;;;;;;;;;9.31;76.44;100040.94;5120306;27;26871;-88
2021/12/24 01:00:12;;;;;;;;;;;;;;;9.36;76.38;100041.66;5123531;27;27623;-88
2021/12/24 01:02:37;;;;;;;;;;;;;;;9.38;75.96;100042.44;5141397;27;26954;-87
2021/12/24 01:05:03;;;;;;;;;;;;;;;9.39;76.15;100038.97;5122457;27;37226;-88
2021/12/24 01:07:28;;;;;;;;;;;;;;;9.42;76.55;100032.84;5123218;27;26834;-88
2021/12/24 01:09:53;;;;;;;;;;;;;;;9.42;76.49;100020.81;5140415;27;42585;-87
2021/12/24 01:12:19;;;;;;;;;;;;;;;9.47;76.01;100036.13;5142468;27;26784;-87
2021/12/24 01:14:47;;;;;;;;;;;;;;;9.50;76.15;100031.72;5143063;27;27729;-88
2021/12/24 01:19:40;;;;;;;;;;;;;;;9.57;75.87;100033.22;5140759;27;26947;-88
2021/12/24 01:24:43;;;;;;;;;;;;;;;9.61;76.02;100021.91;5142385;27;26928;-88
2021/12/24 01:27:49;;;;;;;;;;;;;;;9.61;77.18;100024.47;5143501;27;26912;-88
2021/12/24 01:38:14;;;;;;;;;;;;;;;9.73;76.28;100012.91;5121163;27;26987;-87
2021/12/24 01:41:05;;;;;;;;;;;;;;;9.76;76.14;100011.94;5150668;27;26839;-88
2021/12/24 01:43:30;;;;;;;;;;;;;;;9.79;76.63;100010.09;5133003;27;26980;-88
2021/12/24 01:45:56;;;;;;;;;;;;;;;9.82;76.14;100007.44;5147691;27;26986;-88
2021/12/24 01:48:21;;;;;;;;;;;;;;;9.85;76.41;100003.91;5146655;27;26905;-87
2021/12/24 01:50:49;;;;;;;;;;;;;;;9.89;76.11;100002.91;5143949;27;27479;-87
2021/12/24 01:53:17;;;;;;;;;;;;;;;9.91;76.67;100001.09;5144837;27;26740;-88
2021/12/24 01:55:44;;;;;;;;;;;;;;;9.95;75.84;99997.53;5144204;27;27023;-88
2021/12/24 01:58:09;;;;;;;;;;;;;;;9.96;76.54;99996.63;5144474;27;26875;-88
2021/12/24 02:00:37;;;;;;;;;;;;;;;9.99;76.29;99993.94;5145203;27;26976;-87
2021/12/24 02:03:02;;;;;;;;;;;;;;;10.02;76.47;99993.84;5144563;27;26852;-87
2021/12/24 02:05:29;;;;;;;;;;;;;;;10.04;76.14;99986.91;5145707;27;27695;-88
2021/12/24 02:07:54;;;;;;;;;;;;;;;10.08;76.39;99991.06;5144206;27;27023;-88
2021/12/24 02:10:20;;;;;;;;;;;;;;;10.11;75.75;99993.50;5143647;27;57189;-88
2021/12/24 02:12:46;;;;;;;;;;;;;;;10.13;75.74;99991.72;5143565;27;26980;-87
2021/12/24 02:15:20;;;;;;;;;;;;;;;10.17;75.84;99988.16;5141852;27;28824;-88
2021/12/24 02:28:40;;;;;;;;;;;;;;;10.26;76.85;99985.25;5146054;27;26793;-87
2021/12/24 02:31:08;;;;;;;;;;;;;;;10.28;76.69;99988.59;5128489;27;27697;-88
2021/12/24 02:33:33;;;;;;;;;;;;;;;10.32;76.01;99974.69;5154957;27;26436;-88
2021/12/24 02:35:58;;;;;;;;;;;;;;;10.35;76.25;99982.31;5146918;27;26967;-87
2021/12/24 02:38:24;;;;;;;;;;;;;;;10.39;76.60;99983.88;5145628;27;26575;-87
2021/12/24 02:40:49;;;;;;;;;;;;;;;10.42;75.84;99968.28;5144035;27;26865;-89
2021/12/24 02:43:18;;;;;;;;;;;;;;;10.44;76.47;99961.31;5142419;27;26923;-89
2021/12/24 02:45:46;;;;;;;;;;;;;;;10.47;76.66;99961.19;5142476;27;27447;-88
2021/12/24 02:56:09;;;;;;;;;;;;;;;10.58;76.07;99950.47;5143303;27;26789;-88
2021/12/24 02:58:41;;;;;;;;;;;;;;;10.62;76.13;99945.13;5143214;27;26992;-88
2021/12/24 03:01:08;;;;;;;;;;;;;;;10.64;76.07;99953.66;5146951;27;27420;-87
2021/12/24 03:03:33;;;;;;;;;;;;;;;10.65;76.43;99950.16;5144751;27;26709;-87
2021/12/24 03:05:58;;;;;;;;;;;;;;;10.68;76.82;99953.53;5141776;27;26886;-88
2021/12/24 03:08:23;;;;;;;;;;;;;;;10.70;76.17;99942.25;5142665;27;26912;-88
2021/12/24 03:10:49;;;;;;;;;;;;;;;10.74;76.14;99948.13;5146840;27;27524;-88
2021/12/24 03:13:14;;;;;;;;;;;;;;;10.78;75.84;99950.53;5149620;27;26618;-88
2021/12/24 03:15:39;;;;;;;;;;;;;;;10.80;75.97;99942.75;5144912;27;26916;-87
2021/12/24 03:18:04;;;;;;;;;;;;;;;10.81;75.93;99944.41;5142650;27;26848;-88
2021/12/24 03:20:33;;;;;;;;;;;;;;;10.88;75.94;99943.25;5146287;27;26961;-87
2021/12/24 03:23:11;;;;;;;;;;;;;;;10.91;76.25;99948.31;5145478;27;26887;-88
2021/12/24 03:25:37;;;;;;;;;;;;;;;10.92;76.71;99958.56;5147223;27;27113;-88
2021/12/24 03:28:02;;;;;;;;;;;;;;;10.95;77.11;99957.59;5155098;27;26758;-87
2021/12/24 03:30:28;;;;;;;;;;;;;;;10.96;76.65;99954.13;5144809;27;28277;-88
2021/12/24 03:32:53;;;;;;;;;;;;;;;10.97;76.67;99966.16;5124164;27;26967;-88
2021/12/24 03:35:18;;;;;;;;;;;;;;;11.02;77.07;99953.91;5144158;27;27033;-87
2021/12/24 03:37:43;;;;;;;;;;;;;;;11.02;77.24;99954.72;5144346;27;26778;-87
2021/12/24 03:40:09;;;;;;;;;;;;;;;11.05;77.14;99954.63;5142418;27;27426;-88
2021/12/24 03:42:37;;;;;;;;;;;;;;;11.09;77.27;99958.75;5140707;27;26742;-88
2021/12/24 03:45:18;;;;;;;;;;;;;;;11.13;76.51;99954.31;5146263;27;26886;-88
2021/12/24 03:47:47;;;;;;;;;;;;;;;11.14;76.84;99958.53;5126547;27;26928;-89
2021/12/24 03:50:13;;;;;;;;;;;;;;;11.17;77.28;99948.09;5123188;27;27734;-87
2021/12/24 03:53:03;;;;;;;;;;;;;;;11.18;77.67;99954.94;5122329;27;29281;-88
2021/12/24 03:55:28;;;;;;;;;;;;;;;11.24;77.10;99954.69;5139338;27;26993;-88
2021/12/24 03:57:54;;;;;;;;;;;;;;;11.27;76.79;99953.72;5122734;27;26940;-88
2021/12/24 04:00:21;;;;;;;;;;;;;;;11.27;77.10;99964.91;5124384;27;53243;-87
2021/12/24 04:02:46;;;;;;;;;;;;;;;11.29;76.47;99957.91;5146622;27;27055;-87
2021/12/24 04:05:12;;;;;;;;;;;;;;;11.29;76.50;99963.09;5143359;27;33287;-88
2021/12/24 04:07:37;;;;;;;;;;;;;;;11.30;77.06;99959.59;5141180;27;27008;-88
2021/12/24 04:10:12;;;;;;;;;;;;;;;11.34;76.80;99963.75;5140406;27;37172;-88
2021/12/24 04:12:37;;;;;;;;;;;;;;;11.37;76.01;99965.34;5122016;27;26869;-88
2021/12/24 04:15:03;;;;;;;;;;;;;;;11.39;76.98;99974.75;5122992;27;50321;-87
2021/12/24 04:17:31;;;;;;;;;;;;;;;11.43;76.37;99975.47;5141396;27;27005;-87
2021/12/24 04:25:21;;;;;;;;;;;;;;;11.46;76.98;99976.16;5142089;27;26959;-87
2021/12/24 04:27:46;;;;;;;;;;;;;;;11.50;76.18;99967.38;5143974;27;26964;-88
2021/12/24 04:30:16;;;;;;;;;;;;;;;11.51;76.95;99979.38;5124936;27;27666;-88
2021/12/24 04:32:54;;;;;;;;;;;;;;;11.53;77.14;99972.41;5144011;27;26823;-87
2021/12/24 04:51:03;;;;;;;;;;;;;;;11.60;76.64;99981.59;5140299;27;26854;-88
2021/12/24 04:51:41;;;;;;;;;;;;;;;11.66;76.55;99969.31;5143189;27;26804;-88
2021/12/24 05:04:34;;;;;;;;;;;;;;;11.67;76.77;99978.75;5147280;27;26812;-88
2021/12/24 05:07:10;;;;;;;;;;;;;;;11.68;76.31;99980.44;5144591;27;27409;-88
2021/12/24 05:09:40;;;;;;;;;;;;;;;11.67;76.16;99978.75;5143278;27;26885;-88
2021/12/24 05:12:06;;;;;;;;;;;;;;;11.70;76.34;99986.41;5144104;27;27030;-87
2021/12/24 05:14:31;;;;;;;;;;;;;;;11.70;76.77;99978.63;5140241;27;27090;-88
2021/12/24 05:17:16;;;;;;;;;;;;;;;11.70;76.46;99973.47;5144972;27;27058;-88
2021/12/24 05:22:25;;;;;;;;;;;;;;;11.67;75.97;99968.38;5144390;27;26557;-88
2021/12/24 05:24:50;;;;;;;;;;;;;;;11.68;76.66;99978.69;5126934;27;29323;-88
2021/12/24 05:27:16;;;;;;;;;;;;;;;11.70;76.27;99983.81;5147099;27;51299;-88
2021/12/24 05:29:41;;;;;;;;;;;;;;;11.66;76.50;99977.09;5146438;27;26636;-87
2021/12/24 05:32:07;;;;;;;;;;;;;;;11.70;76.26;99973.47;5146268;27;26960;-87
2021/12/24 05:34:33;;;;;;;;;;;;;;;11.71;76.61;99975.13;5146222;27;26858;-87
2021/12/24 05:36:58;;;;;;;;;;;;;;;11.68;76.24;99975.25;5145997;27;27049;-87
2021/12/24 05:39:23;;;;;;;;;;;;;;;11.73;76.13;99983.69;5147814;27;40546;-89
2021/12/24 05:41:48;;;;;;;;;;;;;;;11.73;75.65;99978.53;5145348;27;26743;-88
2021/12/24 05:44:16;;;;;;;;;;;;;;;11.74;76.22;99969.84;5125410;27;34754;-88
2021/12/24 05:46:42;;;;;;;;;;;;;;;11.76;76.51;99968.03;5142847;27;27126;-88
2021/12/24 05:49:07;;;;;;;;;;;;;;;11.75;76.38;99976.69;5142603;27;26999;-88
2021/12/24 05:51:33;;;;;;;;;;;;;;;11.77;75.87;99974.91;5145605;27;26944;-88
2021/12/24 05:53:59;;;;;;;;;;;;;;;11.79;75.83;99978.25;5145596;27;26914;-88
2021/12/24 05:56:24;;;;;;;;;;;;;;;11.78;76.03;99986.91;5143829;27;26984;-88
2021/12/24 05:58:49;;;;;;;;;;;;;;;11.79;75.47;99983.44;5142802;27;54821;-88
2021/12/24 06:01:15;;;;;;;;;;;;;;;11.77;75.46;99980.06;5144265;27;27210;-88
2021/12/24 06:03:40;;;;;;;;;;;;;;;11.78;76.05;99986.91;5143397;27;55012;-88
2021/12/24 06:06:06;;;;;;;;;;;;;;;11.78;75.75;99992.94;5141682;27;44447;-88
2021/12/24 06:08:31;;;;;;;;;;;;;;;11.79;76.13;99998.94;5144595;27;26989;-88
2021/12/24 06:10:56;;;;;;;;;;;;;;;11.78;76.14;100002.44;5122444;27;28270;-88
2021/12/24 06:13:27;;;;;;;;;;;;;;;11.79;76.17;99993.78;5143165;27;26750;-88
2021/12/24 06:15:53;;;;;;;;;;;;;;;11.79;75.66;99991.19;5129428;27;27639;-88
2021/12/24 06:18:29;;;;;;;;;;;;;;;11.78;76.13;99999.84;5148346;27;26939;-88
2021/12/24 06:20:55;;;;;;;;;;;;;;;11.79;75.98;99988.59;5144646;27;27577;-88
2021/12/24 06:23:22;;;;;;;;;;;;;;;11.79;75.62;99989.44;5144094;27;26862;-88
2021/12/24 06:25:48;;;;;;;;;;;;;;;11.78;75.09;99984.31;5143374;27;27536;-88
2021/12/24 06:28:13;;;;;;;;;;;;;;;11.76;75.57;99984.41;5144548;27;26893;-87
2021/12/24 06:30:39;;;;;;;;;;;;;;;11.78;75.25;99981.75;5123836;27;27739;-88
2021/12/24 06:33:04;;;;;;;;;;;;;;;11.79;76.46;99984.28;5143858;27;26775;-88
2021/12/24 06:35:30;;;;;;;;;;;;;;;11.76;74.67;99994.75;5143486;27;26955;-88
2021/12/24 06:37:56;;;;;;;;;;;;;;;11.78;75.42;99992.94;5143145;27;26955;-88
2021/12/24 06:40:22;;;;;;;;;;;;;;;11.76;76.04;99991.31;5142546;27;27409;-87
2021/12/24 06:42:47;;;;;;;;;;;;;;;11.79;74.83;99988.59;5124139;27;26872;-87
2021/12/24 06:45:12;;;;;;;;;;;;;;;11.80;75.39;99995.47;5143449;27;26722;-87
2021/12/24 06:47:38;;;;;;;;;;;;;;;11.78;75.82;99986.91;5143907;27;41444;-88
2021/12/24 06:50:03;;;;;;;;;;;;;;;11.79;75.30;99996.38;5143360;27;41526;-88
2021/12/24 06:52:29;;;;;;;;;;;;;;;11.79;75.29;99994.63;5141784;27;26802;-88
2021/12/24 06:54:55;;;;;;;;;;;;;;;11.77;75.33;100003.38;5141752;27;27498;-88
2021/12/24 06:57:20;;;;;;;;;;;;;;;11.78;75.33;100007.59;5149000;27;26976;-88
2021/12/24 06:59:46;;;;;;;;;;;;;;;11.79;75.87;100014.47;5144066;27;26819;-88
2021/12/24 07:02:11;;;;;;;;;;;;;;;11.78;75.19;100012.78;5141210;27;26989;-88
2021/12/24 07:04:36;;;;;;;;;;;;;;;11.57;74.86;99979.16;5141167;27;26962;-88
2021/12/24 07:07:02;;;;;;;;;;;;;;;11.75;74.66;100012.91;5141717;27;36638;-88
2021/12/24 07:09:27;;;;;;;;;;;;;;;11.76;75.00;100014.59;5142857;27;28791;-88
2021/12/24 07:11:52;;;;;;;;;;;;;;;11.76;74.81;100030.13;5143806;27;46576;-88
2021/12/24 07:14:17;;;;;;;;;;;;;;;11.74;75.23;100026.75;5144284;27;27808;-88
2021/12/24 07:16:43;;;;;;;;;;;;;;;11.76;75.37;100030.13;5141714;27;26808;-88
2021/12/24 07:19:08;;;;;;;;;;;;;;;11.75;75.03;100028.44;5142403;27;27044;-87
2021/12/24 07:21:35;;;;;;;;;;;;;;;11.74;74.78;100030.19;5146652;27;27322;-87
2021/12/24 07:24:00;;;;;;;;;;;;;;;11.73;74.83;100031.09;5146213;27;27024;-87
2021/12/24 07:26:26;;;;;;;;;;;;;;;11.73;75.38;100032.84;5147634;27;26829;-87
2021/12/24 07:28:52;;;;;;;;;;;;;;;11.74;74.31;100027.59;5147092;27;27044;-88
2021/12/24 07:31:17;;;;;;;;;;;;;;;11.75;75.16;100031.03;5141778;27;26887;-87
2021/12/24 07:33:42;;;;;;;;;;;;;;;11.75;74.82;100033.63;5141746;27;27060;-87
2021/12/24 07:36:07;;;;;;;;;;;;;;;11.72;75.49;100031.16;5140683;27;54226;-86
2021/12/24 07:38:33;;;;;;;;;;;;;;;11.69;74.35;100033.84;5122880;27;50360;-87
2021/12/24 07:40:59;;;;;;;;;;;;;;;11.68;74.34;100027.00;5124244;27;26883;-88
2021/12/24 07:43:24;;;;;;;;;;;;;;;11.66;74.56;100039.16;5143291;27;27158;-87
2021/12/24 07:45:51;;;;;;;;;;;;;;;11.66;74.42;100033.97;5142568;27;26663;-87
2021/12/24 07:48:26;;;;;;;;;;;;;;;11.66;74.47;100034.81;5122570;27;27976;-88
2021/12/24 07:53:17;;;;;;;;;;;;;;;11.63;74.47;100034.94;5140788;27;27804;-86
2021/12/24 07:55:43;;;;;;;;;;;;;;;11.63;74.54;100035.78;5125391;27;27022;-88
2021/12/24 07:58:08;;;;;;;;;;;;;;;11.61;73.61;100037.59;5144908;27;27131;-88
2021/12/24 08:00:34;;;;;;;;;;;;;;;11.61;74.28;100047.94;5142904;27;26875;-88
2021/12/24 08:03:03;;;;;;;;;;;;;;;11.59;73.72;100052.31;5141843;27;26950;-88
2021/12/24 08:05:31;;;;;;;;;;;;;;;11.57;73.64;100058.47;5142363;27;27062;-87
2021/12/24 08:10:34;;;;;;;;;;;;;;;11.56;73.95;100060.22;5198700;27;28107;-79
2021/12/24 08:12:59;;;;;;;;;;;;;;;11.53;74.26;100059.50;5198903;27;26793;-79
2021/12/24 08:15:24;;;;;;;;;;;;;;;11.52;73.70;100062.97;5198828;27;27138;-79
2021/12/24 08:17:49;;;;;;;;;;;;;;;11.48;73.79;100062.25;5198078;27;27105;-78
2021/12/24 08:20:21;;;;;;;;;;;;;;;11.45;73.92;100061.56;5198828;27;27118;-78
2021/12/24 08:22:46;;;;;;;;;;;;;;;11.43;74.40;100059.06;5198289;27;27489;-78
2021/12/24 08:25:11;;;;;;;;;;;;;;;11.41;74.35;100057.41;5201835;27;26819;-79
2021/12/24 08:27:38;;;;;;;;;;;;;;;11.38;74.34;100055.78;5204081;27;54249;-78
2021/12/24 08:30:04;;;;;;;;;;;;;;;11.34;74.46;100049.06;5204459;27;26743;-79
2021/12/24 08:32:29;;;;;;;;;;;;;;;11.34;74.14;100038.72;5200935;27;26946;-79
2021/12/24 08:34:55;;;;;;;;;;;;;;;11.35;74.41;100045.59;5199771;27;27068;-79
2021/12/24 08:37:21;;;;;;;;;;;;;;;11.33;73.98;100042.19;5199752;27;27067;-79
2021/12/24 08:39:47;;;;;;;;;;;;;;;11.28;74.45;100038.97;5180190;27;26852;-79
2021/12/24 08:42:12;;;;;;;;;;;;;;;11.28;74.36;100038.13;5197747;27;56280;-79
2021/12/24 08:44:37;;;;;;;;;;;;;;;11.24;73.90;100032.25;5196951;27;55037;-79
2021/12/24 08:47:04;;;;;;;;;;;;;;;11.26;75.00;100030.44;5198029;27;27056;-78
2021/12/24 08:49:29;;;;;;;;;;;;;;;11.26;75.04;100017.50;5197210;27;26783;-79
2021/12/24 08:51:55;;;;;;;;;;;;;;;11.29;74.11;100017.38;5197457;27;26798;-79
2021/12/24 08:54:21;;;;;;;;;;;;;;;11.30;74.87;100020.81;5197293;27;26815;-79
2021/12/24 08:56:46;;;;;;;;;;;;;;;11.34;74.36;100024.94;5197474;27;27112;-79
2021/12/24 08:59:12;;;;;;;;;;;;;;;11.34;74.32;100023.22;5198800;27;27031;-79
2021/12/24 09:01:38;;;;;;;;;;;;;;;11.37;73.96;100017.91;5199842;27;26788;-79
2021/12/24 09:04:03;;;;;;;;;;;;;;;11.39;74.42;100013.53;5198877;27;26819;-79
2021/12/24 09:06:28;;;;;;;;;;;;;;;11.42;74.17;100010.81;5200737;27;26919;-79
2021/12/24 09:08:53;;;;;;;;;;;;;;;11.45;73.81;100021.03;5199671;27;26842;-79
2021/12/24 09:11:19;;;;;;;;;;;;;;;11.47;74.35;100011.44;5198237;27;42896;-79
2021/12/24 09:13:45;;;;;;;;;;;;;;;11.51;74.33;100020.75;5198777;27;26813;-78
2021/12/24 09:16:10;;;;;;;;;;;;;;;11.54;74.37;100022.41;5198358;27;27020;-78
2021/12/24 09:18:38;;;;;;;;;;;;;;;11.56;73.86;100018.84;5197860;27;26766;-78
2021/12/24 09:21:05;;;;;;;;;;;;;;;11.57;73.60;100025.69;5189189;27;27036;-78
2021/12/24 09:23:30;;;;;;;;;;;;;;;11.60;74.16;100022.97;5184290;27;26931;-79
2021/12/24 09:25:55;;;;;;;;;;;;;;;11.60;74.06;100024.72;5183202;27;27952;-79
2021/12/24 09:28:20;;;;;;;;;;;;;;;11.61;74.22;100016.91;5183763;27;26741;-79
2021/12/24 09:30:46;;;;;;;;;;;;;;;11.63;73.73;100009.91;5186915;27;26718;-79
2021/12/24 09:33:11;;;;;;;;;;;;;;;11.64;73.82;100016.78;5188132;27;26920;-79
2021/12/24 09:35:37;;;;;;;;;;;;;;;11.66;73.95;100018.47;5184794;27;26772;-79
2021/12/24 09:38:02;;;;;;;;;;;;;;;11.67;73.88;100023.56;5184321;27;26737;-78
2021/12/24 09:40:28;;;;;;;;;;;;;;;11.70;73.68;100026.00;5184096;27;26910;-79
2021/12/24 09:42:53;;;;;;;;;;;;;;;11.73;73.83;100025.09;5184458;27;26742;-79
2021/12/24 09:45:19;;;;;;;;;;;;;;;11.72;73.53;100028.56;5183708;27;26747;-80
2021/12/24 09:47:44;;;;;;;;;;;;;;;11.68;73.80;100019.22;5183773;27;26883;-79
2021/12/24 09:50:11;;;;;;;;;;;;;;;11.65;73.09;100027.97;5163640;27;28421;-79
2021/12/24 09:52:40;;;;;;;;;;;;;;;11.62;73.46;100028.91;5182699;27;26931;-79
2021/12/24 09:55:07;;;;;;;;;;;;;;;11.59;74.07;100029.03;5183111;27;26759;-79
2021/12/24 09:57:32;;;;;;;;;;;;;;;11.58;73.23;100032.53;5182817;27;26798;-79
2021/12/24 09:59:57;;;;;;;;;;;;;;;11.57;73.50;100036.03;5181609;27;49738;-78
2021/12/24 10:02:28;;;;;;;;;;;;;;;11.52;73.67;100026.78;5182928;27;47861;-78
2021/12/24 10:04:53;;;;;;;;;;;;;;;11.47;73.99;100029.53;5183601;27;26663;-78
2021/12/24 10:07:24;;;;;;;;;;;;;;;11.46;74.79;100030.47;5180907;27;45968;-79
2021/12/24 10:09:50;;;;;;;;;;;;;;;11.45;73.89;100031.38;5181482;27;27214;-79
2021/12/24 10:12:17;;;;;;;;;;;;;;;11.40;73.60;100030.69;5182318;27;27087;-79
2021/12/24 10:14:57;;;;;;;;;;;;;;;11.41;74.29;100034.13;5181502;27;27165;-79
2021/12/24 10:17:25;;;;;;;;;;;;;;;11.40;74.88;100033.28;5181140;27;26903;-79
2021/12/24 10:19:52;;;;;;;;;;;;;;;11.39;74.05;100031.63;5181773;27;27207;-80
2021/12/24 10:22:17;;;;;;;;;;;;;;;11.40;74.34;100033.28;5182906;27;26871;-81
2021/12/24 10:24:56;;;;;;;;;;;;;;;11.40;75.05;100027.28;5183458;27;27313;-80
2021/12/24 10:27:26;;;;;;;;;;;;;;;11.41;73.88;100034.13;5184165;27;26736;-78
2021/12/24 10:29:51;;;;;;;;;;;;;;;11.41;74.72;100031.56;5183798;27;26873;-79
2021/12/24 10:32:18;;;;;;;;;;;;;;;11.38;74.87;100029.09;5180887;27;40026;-79
2021/12/24 10:34:43;;;;;;;;;;;;;;;11.37;74.39;100028.25;5183706;27;27625;-80
2021/12/24 10:37:11;;;;;;;;;;;;;;;11.35;75.05;100030.06;5184788;27;26918;-80
2021/12/24 10:39:40;;;;;;;;;;;;;;;11.34;74.34;100032.69;5188922;27;26976;-80
2021/12/24 10:42:12;;;;;;;;;;;;;;;11.32;74.86;100030.16;5193660;27;26437;-80
2021/12/24 10:44:38;;;;;;;;;;;;;;;11.31;74.74;100023.34;5188836;27;26902;-80
2021/12/24 10:47:09;;;;;;;;;;;;;;;11.32;75.20;100027.59;5187156;27;26760;-80
2021/12/24 10:52:14;;;;;;;;;;;;;;;11.32;75.08;100029.34;5182264;27;26709;-80
2021/12/24 10:54:53;;;;;;;;;;;;;;;11.31;74.87;100013.00;5185427;27;27691;-79
2021/12/24 10:57:20;;;;;;;;;;;;;;;11.33;75.17;100026.69;5184214;27;26897;-79
2021/12/24 10:59:49;;;;;;;;;;;;;;;11.33;74.73;100020.66;5183976;27;28146;-80
2021/12/24 11:02:14;;;;;;;;;;;;;;;11.33;75.45;100024.09;5185187;27;26970;-79
2021/12/24 11:04:39;;;;;;;;;;;;;;;11.34;75.56;100027.53;5191597;27;57203;-79
2021/12/24 11:07:31;;;;;;;;;;;;;;;11.34;75.10;100023.22;5170528;27;26925;-79
2021/12/24 11:10:14;;;;;;;;;;;;;;;11.37;74.84;100032.56;5179536;27;26811;-79
2021/12/24 11:12:41;;;;;;;;;;;;;;;11.39;75.09;100031.63;5184958;27;26813;-79
2021/12/24 12:04:19;;;;;;;;;;;;;;;11.24;75.88;100021.06;1524462;25;27506;-79
2021/12/24 12:06:44;;;;;;;;;;;;;;;11.24;75.17;100016.75;5147178;27;27017;-79
2021/12/24 12:09:11;;;;;;;;;;;;;;;11.26;75.40;100020.09;5143834;27;26966;-78
2021/12/24 12:11:39;;;;;;;;;;;;;;;11.26;74.91;100012.34;5140524;27;27450;-78
2021/12/24 12:14:04;;;;;;;;;;;;;;;11.29;75.57;100009.63;5140121;27;27069;-77
2021/12/24 12:16:38;;;;;;;;;;;;;;;11.29;75.13;100014.78;5139316;27;41336;-77
2021/12/24 12:19:13;;;;;;;;;;;;;;;11.29;75.41;100004.44;5141062;27;26987;-77
2021/12/24 12:21:42;;;;;;;;;;;;;;;11.26;75.13;99999.41;5141454;27;27016;-80
2021/12/24 12:26:41;;;;;;;;;;;;;;;11.24;75.33;100011.56;5142246;27;26837;-77
2021/12/24 12:29:27;;;;;;;;;;;;;;;11.22;75.42;100013.34;5146433;27;26621;-81
2021/12/24 12:31:52;;;;;;;;;;;;;;;11.27;75.42;100011.44;5140462;27;26911;-81
2021/12/24 12:34:36;;;;;;;;;;;;;;;11.32;75.16;100009.47;5139941;27;48446;-80
2021/12/24 12:37:11;;;;;;;;;;;;;;;11.32;75.49;100017.25;5141951;27;26744;-81
2021/12/24 12:39:36;;;;;;;;;;;;;;;11.35;75.60;100018.88;5141376;27;27096;-77
2021/12/24 12:42:02;;;;;;;;;;;;;;;11.36;75.79;100016.22;5143105;27;26757;-78
2021/12/24 12:44:28;;;;;;;;;;;;;;;11.36;75.75;100016.22;5143105;27;26850;-78
2021/12/24 12:47:07;;;;;;;;;;;;;;;11.38;75.58;100011.84;5142255;27;27012;-78
2021/12/24 12:49:34;;;;;;;;;;;;;;;11.39;76.03;100021.28;5139757;27;26882;-78
2021/12/24 12:52:01;;;;;;;;;;;;;;;11.40;75.20;100017.78;5139907;27;26969;-78
2021/12/24 12:54:40;;;;;;;;;;;;;;;11.42;74.91;100015.97;5142275;27;26839;-80
2021/12/24 12:57:08;;;;;;;;;;;;;;;11.44;75.58;100009.00;5147098;27;26950;-80
2021/12/24 12:59:33;;;;;;;;;;;;;;;11.49;75.84;100012.25;5144089;27;27095;-79
2021/12/24 13:01:58;;;;;;;;;;;;;;;11.52;75.91;100012.09;5143322;27;49743;-79
2021/12/24 13:04:24;;;;;;;;;;;;;;;11.56;75.65;100018.84;5143304;27;53834;-78
2021/12/24 13:06:51;;;;;;;;;;;;;;;11.57;74.69;100015.34;5143305;27;26919;-79
2021/12/24 13:09:22;;;;;;;;;;;;;;;11.58;75.15;100011.84;5143021;27;26660;-78
2021/12/24 13:11:49;;;;;;;;;;;;;;;11.58;75.15;100013.63;5144039;27;26829;-78
2021/12/24 13:14:15;;;;;;;;;;;;;;;11.56;75.55;100013.66;5145052;27;26836;-80
2021/12/24 13:16:48;;;;;;;;;;;;;;;11.56;75.08;100013.66;5145144;27;27373;-81
2021/12/24 13:19:56;;;;;;;;;;;;;;;11.55;74.71;100009.38;5146063;27;26947;-79
2021/12/24 13:22:36;;;;;;;;;;;;;;;11.54;75.65;100012.91;5145208;27;26972;-78
2021/12/24 13:25:02;;;;;;;;;;;;;;;11.54;75.40;100010.31;5143105;27;26840;-78
2021/12/24 13:27:30;;;;;;;;;;;;;;;11.52;75.05;100012.09;5143146;27;26848;-78
2021/12/24 13:30:09;;;;;;;;;;;;;;;11.53;75.35;100021.56;5125321;27;26817;-78
2021/12/24 13:32:43;;;;;;;;;;;;;;;11.55;74.63;100022.31;5124373;27;28939;-78
2021/12/24 13:35:09;;;;;;;;;;;;;;;11.54;75.52;100025.84;5142573;27;26822;-78
2021/12/24 13:37:34;;;;;;;;;;;;;;;11.51;75.55;100025.94;5142515;27;26951;-78
2021/12/24 13:40:00;;;;;;;;;;;;;;;11.52;74.97;100026.78;5142723;27;26477;-78
2021/12/24 13:42:25;;;;;;;;;;;;;;;11.54;75.37;100025.84;5140465;27;57053;-78
2021/12/24 13:44:57;;;;;;;;;;;;;;;11.49;74.35;100021.75;5141318;27;27129;-78
2021/12/24 13:47:41;;;;;;;;;;;;;;;11.45;75.70;100031.38;5141896;27;26957;-78
2021/12/24 13:50:25;;;;;;;;;;;;;;;11.46;75.16;100038.22;5141703;27;26818;-78
2021/12/24 13:55:38;;;;;;;;;;;;;;;11.40;75.28;100048.81;5146437;27;26820;-79
2021/12/24 13:58:04;;;;;;;;;;;;;;;11.39;74.76;100047.16;5148238;27;27480;-79
2021/12/24 14:00:31;;;;;;;;;;;;;;;11.36;74.93;100047.25;5141475;27;26808;-78
2021/12/24 14:02:59;;;;;;;;;;;;;;;11.38;75.40;100055.78;5141258;27;28263;-78
2021/12/24 14:05:25;;;;;;;;;;;;;;;11.37;74.26;100048.94;5141089;27;26874;-79
2021/12/24 14:08:03;;;;;;;;;;;;;;;11.38;74.67;100050.63;5141890;27;27046;-79
2021/12/24 14:10:28;;;;;;;;;;;;;;;11.35;74.71;100066.25;5141297;27;26858;-79
2021/12/24 14:12:55;;;;;;;;;;;;;;;11.36;75.20;100062.75;5140551;27;40032;-79
2021/12/24 14:15:25;;;;;;;;;;;;;;;11.34;74.27;100059.41;5140598;27;26800;-79
2021/12/24 14:18:17;;;;;;;;;;;;;;;11.33;74.69;100062.88;5140806;27;27488;-79
2021/12/24 14:23:23;;;;;;;;;;;;;;;11.36;75.04;100073.09;5140816;27;26732;-79
2021/12/24 14:25:55;;;;;;;;;;;;;;;11.34;74.52;100080.09;5143908;27;54101;-79
2021/12/24 14:28:22;;;;;;;;;;;;;;;11.29;74.57;100079.41;5142779;27;27005;-81
2021/12/24 14:30:47;;;;;;;;;;;;;;;11.26;74.52;100092.47;5141954;27;26875;-79
2021/12/24 14:33:12;;;;;;;;;;;;;;;11.25;74.56;100102.88;5140612;27;56754;-78
2021/12/24 14:35:41;;;;;;;;;;;;;;;11.18;74.46;100104.84;5141404;27;54308;-78
2021/12/24 14:38:13;;;;;;;;;;;;;;;11.10;73.38;100112.03;5142007;27;26934;-78
2021/12/24 14:40:38;;;;;;;;;;;;;;;10.96;73.12;100114.31;5141834;27;26819;-79
2021/12/24 14:43:14;;;;;;;;;;;;;;;10.81;73.47;100120.91;5141152;27;26860;-78
2021/12/24 14:45:40;;;;;;;;;;;;;;;10.67;73.48;100117.97;5142971;27;26996;-78
2021/12/24 14:48:08;;;;;;;;;;;;;;;10.60;74.15;100126.84;5142824;27;26964;-77
2021/12/24 14:50:36;;;;;;;;;;;;;;;10.52;73.62;100129.72;5142789;27;26879;-78
2021/12/24 14:53:09;;;;;;;;;;;;;;;10.45;73.40;100138.56;5141472;27;26764;-81
2021/12/24 14:55:53;;;;;;;;;;;;;;;10.36;73.43;100144.03;5141290;27;27218;-79
2021/12/24 14:58:32;;;;;;;;;;;;;;;10.14;73.46;100117.25;5140823;27;27091;-79
2021/12/24 15:00:59;;;;;;;;;;;;;;;10.21;73.13;100149.72;5140371;27;26788;-79
2021/12/24 15:03:29;;;;;;;;;;;;;;;10.17;73.46;100153.31;5140413;27;27116;-79
2021/12/24 15:05:55;;;;;;;;;;;;;;;10.11;73.29;100143.16;5146907;27;26839;-79
2021/12/24 15:08:24;;;;;;;;;;;;;;;10.05;72.76;100153.69;5142886;27;27030;-79
2021/12/24 15:10:58;;;;;;;;;;;;;;;9.97;73.07;100155.69;5141813;27;27065;-79